createdAt,value
2019-03-20T00:00:31.200Z,3.47
2019-03-20T00:03:00.533Z,3.41
2019-03-20T00:05:29.937Z,3.39
2019-03-20T00:07:59.270Z,3.37
2019-03-20T00:10:28.775Z,3.40
2019-03-20T00:12:58.114Z,3.44
2019-03-20T00:15:27.695Z,3.43
2019-03-20T00:17:57.094Z,3.40
2019-03-20T00:20:26.596Z,3.32
2019-03-20T00:22:55.932Z,3.28
2019-03-20T00:25:25.264Z,3.26
2019-03-20T00:27:54.592Z,3.25
2019-03-20T00:30:24.001Z,3.20
2019-03-20T00:32:53.405Z,3.16
2019-03-20T00:35:22.806Z,3.14
2019-03-20T00:37:52.210Z,3.13
2019-03-20T00:40:21.611Z,3.11
2019-03-20T00:42:51.234Z,3.10
2019-03-20T00:45:21.500Z,3.07
2019-03-20T00:47:50.896Z,3.05
2019-03-20T00:50:20.672Z,3.03
2019-03-20T00:52:50.292Z,3.00
2019-03-20T00:55:20.277Z,3.00
2019-03-20T00:57:49.610Z,2.96
2019-03-20T01:00:21.690Z,2.92
2019-03-20T01:02:51.108Z,2.90
2019-03-20T01:05:21.585Z,2.91
2019-03-20T01:07:50.922Z,2.91
2019-03-20T01:10:21.453Z,2.89
2019-03-20T01:12:51.665Z,2.88
2019-03-20T01:15:21.274Z,2.89
2019-03-20T01:17:50.599Z,2.87
2019-03-20T01:20:21.063Z,2.86
2019-03-20T01:22:51.436Z,2.87
2019-03-20T01:25:21.006Z,2.85
2019-03-20T01:27:50.337Z,2.87
2019-03-20T01:30:33.926Z,2.84
2019-03-20T01:33:07.770Z,2.86
2019-03-20T01:35:37.589Z,2.90
2019-03-20T01:38:07.758Z,2.95
2019-03-20T01:40:37.088Z,2.96
2019-03-20T01:43:07.001Z,2.97
2019-03-20T01:45:36.327Z,2.94
2019-03-20T01:48:06.682Z,2.89
2019-03-20T01:50:36.003Z,2.85
2019-03-20T01:53:05.605Z,2.80
2019-03-20T01:55:35.917Z,2.76
2019-03-20T01:58:05.249Z,2.71
2019-03-20T02:00:34.955Z,2.71
2019-03-20T02:03:04.753Z,2.67
2019-03-20T02:05:36.222Z,2.66
2019-03-20T02:08:05.374Z,2.63
2019-03-20T02:10:34.697Z,2.60
2019-03-20T02:13:04.102Z,2.59
2019-03-20T02:15:38.624Z,2.52
2019-03-20T02:18:04.475Z,2.50
2019-03-20T02:20:33.969Z,2.49
2019-03-20T02:23:03.308Z,2.43
2019-03-20T02:25:32.681Z,2.39
2019-03-20T02:28:02.017Z,2.36
2019-03-20T02:30:31.357Z,2.37
2019-03-20T02:33:00.671Z,2.35
2019-03-20T02:35:29.997Z,2.35
2019-03-20T02:37:59.328Z,2.35
2019-03-20T02:40:28.683Z,2.39
2019-03-20T02:42:57.997Z,2.39
2019-03-20T02:45:27.326Z,2.39
2019-03-20T02:47:56.664Z,2.42
2019-03-20T02:50:25.990Z,2.45
2019-03-20T02:52:55.669Z,2.52
2019-03-20T02:55:25.001Z,2.55
2019-03-20T02:57:54.352Z,2.57
2019-03-20T03:00:23.695Z,2.63
2019-03-20T03:02:53.007Z,2.61
2019-03-20T03:05:22.394Z,2.59
2019-03-20T03:07:51.732Z,2.56
2019-03-20T03:10:21.101Z,2.57
2019-03-20T03:12:50.466Z,2.66
2019-03-20T03:15:19.898Z,2.67
2019-03-20T03:17:49.490Z,2.69
2019-03-20T03:20:18.849Z,2.68
2019-03-20T03:22:48.161Z,2.68
2019-03-20T03:25:17.496Z,2.69
2019-03-20T03:27:46.831Z,2.69
2019-03-20T03:30:17.405Z,2.75
2019-03-20T03:32:47.073Z,2.79
2019-03-20T03:35:19.142Z,2.74
2019-03-20T03:37:47.616Z,2.77
2019-03-20T03:40:18.452Z,2.78
2019-03-20T03:42:47.981Z,2.82
2019-03-20T03:45:17.480Z,2.82
2019-03-20T03:47:46.869Z,2.81
2019-03-20T03:50:16.261Z,2.81
2019-03-20T03:52:45.598Z,2.84
2019-03-20T03:55:15.998Z,2.83
2019-03-20T03:57:45.488Z,2.85
2019-03-20T04:00:21.564Z,2.83
2019-03-20T04:02:50.984Z,2.85
2019-03-20T04:05:20.244Z,2.83
2019-03-20T04:07:49.676Z,2.83
2019-03-20T04:10:19.080Z,2.82
2019-03-20T04:12:48.427Z,2.86
2019-03-20T04:15:17.994Z,2.88
2019-03-20T04:17:47.327Z,2.87
2019-03-20T04:20:17.916Z,2.91
2019-03-20T04:22:47.364Z,2.95
2019-03-20T04:25:17.150Z,2.95
2019-03-20T04:27:46.490Z,2.95
2019-03-20T04:30:17.998Z,3.01
2019-03-20T04:32:47.352Z,3.03
2019-03-20T04:35:16.708Z,3.05
2019-03-20T04:37:46.048Z,3.09
2019-03-20T04:40:16.715Z,3.08
2019-03-20T04:42:46.326Z,3.10
2019-03-20T04:45:16.304Z,3.11
2019-03-20T04:47:45.630Z,3.14
2019-03-20T04:50:16.876Z,3.15
2019-03-20T04:52:46.209Z,3.18
2019-03-20T04:55:15.536Z,3.24
2019-03-20T04:57:45.989Z,3.30
2019-03-20T05:00:19.690Z,3.36
2019-03-20T05:02:49.011Z,3.34
2019-03-20T05:05:18.629Z,3.35
2019-03-20T05:07:47.957Z,3.37
2019-03-20T05:10:18.746Z,3.42
2019-03-20T05:12:48.063Z,3.43
2019-03-20T05:15:17.398Z,3.42
2019-03-20T05:17:46.731Z,3.40
2019-03-20T05:20:17.311Z,3.43
2019-03-20T05:22:46.709Z,3.52
2019-03-20T05:25:16.035Z,3.48
2019-03-20T05:27:45.436Z,3.48
2019-03-20T05:30:15.949Z,3.49
2019-03-20T05:32:45.342Z,3.56
2019-03-20T05:35:14.695Z,3.52
2019-03-20T05:37:44.015Z,3.50
2019-03-20T05:40:14.809Z,3.53
2019-03-20T05:42:44.197Z,3.55
2019-03-20T05:45:17.623Z,3.53
2019-03-20T05:47:46.985Z,3.58
2019-03-20T05:50:17.549Z,3.59
2019-03-20T05:52:47.025Z,3.67
2019-03-20T05:55:16.353Z,3.69
2019-03-20T05:57:45.683Z,3.66
2019-03-20T06:00:17.841Z,3.74
2019-03-20T06:02:47.174Z,3.70
2019-03-20T06:05:16.501Z,3.73
2019-03-20T06:07:45.952Z,3.74
2019-03-20T06:10:16.318Z,3.75
2019-03-20T06:12:45.673Z,3.77
2019-03-20T06:15:15.219Z,3.76
2019-03-20T06:17:46.744Z,3.78
2019-03-20T06:20:15.827Z,3.79
2019-03-20T06:22:45.225Z,3.83
2019-03-20T06:25:15.605Z,3.90
2019-03-20T06:27:45.237Z,3.90
2019-03-20T06:30:19.576Z,3.89
2019-03-20T06:32:48.905Z,3.90
2019-03-20T06:35:18.235Z,3.94
2019-03-20T06:37:47.566Z,3.95
2019-03-20T06:40:18.440Z,3.96
2019-03-20T06:42:47.778Z,4.01
2019-03-20T06:45:18.764Z,4.06
2019-03-20T06:47:48.184Z,4.05
2019-03-20T06:50:22.088Z,4.08
2019-03-20T06:52:51.498Z,4.11
2019-03-20T06:55:20.905Z,4.15
2019-03-20T06:57:50.243Z,4.18
2019-03-20T07:00:51.224Z,4.19
2019-03-20T07:03:35.687Z,4.25
2019-03-20T07:06:10.734Z,4.33
2019-03-20T07:08:58.251Z,4.40
2019-03-20T07:11:26.606Z,4.44
2019-03-20T07:13:55.940Z,4.48
2019-03-20T07:16:26.247Z,4.52
2019-03-20T07:18:55.583Z,4.61
2019-03-20T07:21:24.908Z,4.63
2019-03-20T07:23:54.246Z,4.70
2019-03-20T07:26:23.645Z,4.78
2019-03-20T07:28:52.995Z,4.87
2019-03-20T07:31:22.319Z,4.92
2019-03-20T07:33:51.819Z,4.98
2019-03-20T07:36:21.585Z,5.08
2019-03-20T07:38:50.920Z,5.16
2019-03-20T07:41:20.581Z,5.22
2019-03-20T07:43:49.917Z,5.31
2019-03-20T07:46:19.249Z,5.37
2019-03-20T07:48:48.580Z,5.43
2019-03-20T07:51:17.920Z,5.54
2019-03-20T07:53:47.252Z,5.65
2019-03-20T07:56:16.585Z,5.70
2019-03-20T07:58:45.925Z,5.75
2019-03-20T08:01:15.323Z,5.81
2019-03-20T08:03:44.664Z,5.83
2019-03-20T08:06:14.965Z,5.88
2019-03-20T08:08:44.301Z,5.96
2019-03-20T08:11:13.663Z,6.01
2019-03-20T08:13:43.002Z,6.09
2019-03-20T08:16:13.433Z,6.20
2019-03-20T08:18:42.786Z,6.32
2019-03-20T08:21:12.122Z,6.40
2019-03-20T08:23:41.449Z,6.48
2019-03-20T08:26:10.852Z,6.60
2019-03-20T08:28:40.176Z,6.72
2019-03-20T08:31:10.476Z,6.80
2019-03-20T08:33:39.806Z,6.89
2019-03-20T08:36:09.141Z,6.95
2019-03-20T08:38:38.526Z,7.00
2019-03-20T08:41:08.926Z,7.04
2019-03-20T08:43:38.484Z,7.08
2019-03-20T08:46:07.812Z,7.09
2019-03-20T08:48:37.206Z,7.15
2019-03-20T08:51:06.539Z,7.22
2019-03-20T08:53:36.994Z,7.29
2019-03-20T08:56:06.324Z,7.38
2019-03-20T08:58:35.652Z,7.52
2019-03-20T09:01:05.322Z,7.58
2019-03-20T09:03:34.816Z,7.71
2019-03-20T09:06:04.622Z,7.81
2019-03-20T09:08:34.244Z,7.87
2019-03-20T09:11:03.577Z,7.95
2019-03-20T09:13:34.070Z,8.00
2019-03-20T09:16:03.470Z,8.05
2019-03-20T09:18:32.793Z,8.03
2019-03-20T09:21:02.123Z,8.16
2019-03-20T09:23:31.459Z,8.21
2019-03-20T09:26:00.779Z,8.17
2019-03-20T09:28:30.271Z,8.19
2019-03-20T09:30:59.671Z,8.26
2019-03-20T09:33:29.001Z,8.32
2019-03-20T09:35:58.407Z,8.38
2019-03-20T09:38:27.988Z,8.44
2019-03-20T09:40:57.318Z,8.54
2019-03-20T09:43:26.903Z,8.58
2019-03-20T09:45:57.141Z,8.62
2019-03-20T09:48:26.534Z,8.76
2019-03-20T09:50:55.876Z,8.80
2019-03-20T09:53:25.177Z,8.95
2019-03-20T09:55:54.530Z,9.03
2019-03-20T09:58:23.848Z,9.16
2019-03-20T10:00:53.227Z,9.28
2019-03-20T10:03:22.561Z,9.33
2019-03-20T10:05:51.887Z,9.32
2019-03-20T10:08:21.211Z,9.45
2019-03-20T10:10:50.541Z,9.48
2019-03-20T10:13:19.870Z,9.47
2019-03-20T10:15:49.195Z,9.51
2019-03-20T10:18:18.527Z,9.54
2019-03-20T10:20:48.157Z,9.68
2019-03-20T10:23:17.472Z,9.76
2019-03-20T10:25:46.801Z,9.79
2019-03-20T10:28:16.157Z,9.90
2019-03-20T10:30:45.507Z,9.98
2019-03-20T10:33:16.570Z,9.85
2019-03-20T10:35:50.215Z,9.92
2019-03-20T10:38:17.561Z,10.01
2019-03-20T10:40:46.918Z,10.18
2019-03-20T10:43:16.286Z,10.28
2019-03-20T10:45:45.633Z,10.32
2019-03-20T10:48:14.977Z,10.41
2019-03-20T10:50:45.281Z,10.48
2019-03-20T10:53:14.637Z,10.57
2019-03-20T10:55:43.962Z,10.67
2019-03-20T10:58:13.290Z,10.77
2019-03-20T11:00:42.617Z,10.86
2019-03-20T11:03:11.962Z,11.01
2019-03-20T11:05:41.305Z,10.99
2019-03-20T11:08:12.939Z,11.05
2019-03-20T11:10:41.743Z,11.15
2019-03-20T11:13:11.098Z,11.36
2019-03-20T11:15:40.488Z,11.53
2019-03-20T11:18:09.850Z,11.65
2019-03-20T11:20:39.475Z,11.86
2019-03-20T11:23:08.977Z,12.03
2019-03-20T11:25:39.601Z,12.18
2019-03-20T11:28:08.929Z,12.42
2019-03-20T11:30:38.321Z,12.70
2019-03-20T11:33:07.656Z,12.94
2019-03-20T11:35:37.304Z,13.05
2019-03-20T11:38:06.631Z,13.17
2019-03-20T11:40:38.257Z,13.14
2019-03-20T11:43:07.654Z,13.13
2019-03-20T11:45:36.976Z,13.16
2019-03-20T11:48:06.304Z,13.15
2019-03-20T11:50:39.769Z,13.42
2019-03-20T11:53:09.740Z,13.52
2019-03-20T11:55:39.496Z,13.38
2019-03-20T11:58:08.823Z,13.33
2019-03-20T12:00:39.116Z,13.47
2019-03-20T12:03:08.454Z,13.33
2019-03-20T12:05:37.778Z,13.22
2019-03-20T12:08:08.729Z,13.33
2019-03-20T12:10:38.053Z,13.25
2019-03-20T12:13:07.457Z,13.35
2019-03-20T12:15:36.858Z,13.47
2019-03-20T12:18:07.161Z,13.56
2019-03-20T12:20:36.506Z,13.42
2019-03-20T12:23:06.117Z,13.41
2019-03-20T12:25:40.170Z,13.41
2019-03-20T12:28:09.506Z,13.40
2019-03-20T12:30:39.412Z,13.25
2019-03-20T12:33:08.817Z,13.21
2019-03-20T12:35:43.627Z,13.21
2019-03-20T12:38:15.310Z,13.27
2019-03-20T12:40:44.409Z,13.40
2019-03-20T12:43:13.829Z,13.46
2019-03-20T12:45:43.143Z,13.41
2019-03-20T12:48:15.154Z,13.49
2019-03-20T12:50:44.547Z,13.26
2019-03-20T12:53:17.023Z,13.09
2019-03-20T12:55:46.345Z,13.11
2019-03-20T12:58:15.671Z,13.23
2019-03-20T13:05:42.840Z,13.21
2019-03-20T13:08:12.161Z,13.16
2019-03-20T13:10:41.484Z,13.05
2019-03-20T13:13:10.986Z,13.01
2019-03-20T13:15:40.329Z,13.06
2019-03-20T13:18:09.655Z,13.07
2019-03-20T13:20:38.980Z,13.02
2019-03-20T13:23:17.251Z,13.20
2019-03-20T13:25:46.644Z,13.08
2019-03-20T13:28:15.967Z,12.98
2019-03-20T13:30:51.358Z,13.03
2019-03-20T13:33:25.731Z,13.06
2019-03-20T13:35:51.710Z,13.25
2019-03-20T13:38:21.034Z,13.26
2019-03-20T13:40:50.362Z,13.21
2019-03-20T13:43:19.684Z,13.35
2019-03-20T13:45:49.018Z,13.49
2019-03-20T13:48:18.339Z,13.55
2019-03-20T13:50:47.668Z,13.60
2019-03-20T13:53:17.336Z,13.71
2019-03-20T13:55:46.664Z,13.73
2019-03-20T13:58:15.990Z,13.85
2019-03-20T14:00:46.396Z,13.81
2019-03-20T14:03:15.721Z,13.77
2019-03-20T14:05:45.054Z,13.79
2019-03-20T14:08:14.661Z,13.73
2019-03-20T14:10:50.489Z,13.85
2019-03-20T14:13:15.092Z,13.77
2019-03-20T14:15:44.716Z,13.81
2019-03-20T14:18:14.044Z,13.58
2019-03-20T14:20:43.377Z,13.61
2019-03-20T14:23:12.705Z,13.76
2019-03-20T14:25:42.042Z,13.66
2019-03-20T14:28:11.365Z,13.60
2019-03-20T14:30:40.706Z,13.56
2019-03-20T14:33:10.037Z,13.63
2019-03-20T14:35:39.377Z,13.63
2019-03-20T14:38:08.706Z,13.50
2019-03-20T14:40:38.053Z,13.35
2019-03-20T14:43:07.481Z,13.47
2019-03-20T14:45:36.825Z,13.52
2019-03-20T14:48:06.149Z,13.53
2019-03-20T14:50:36.622Z,13.38
2019-03-20T14:53:06.015Z,13.36
2019-03-20T14:55:35.340Z,13.45
2019-03-20T14:58:04.814Z,13.40
2019-03-20T15:00:34.132Z,13.43
2019-03-20T15:03:03.534Z,13.36
2019-03-20T15:05:32.862Z,13.33
2019-03-20T15:08:02.192Z,13.19
2019-03-20T15:10:31.520Z,13.12
2019-03-20T15:13:00.857Z,13.01
2019-03-20T15:15:51.135Z,13.05
2019-03-20T15:18:20.465Z,12.99
2019-03-20T15:20:49.795Z,13.06
2019-03-20T15:23:19.123Z,13.10
2019-03-20T15:25:48.450Z,13.17
2019-03-20T15:28:18.107Z,13.15
2019-03-20T15:30:47.713Z,13.03
2019-03-20T15:33:17.051Z,13.08
2019-03-20T15:35:46.377Z,13.07
2019-03-20T15:38:15.709Z,13.17
2019-03-20T15:40:45.041Z,13.17
2019-03-20T15:43:14.374Z,13.07
2019-03-20T15:45:43.701Z,13.11
2019-03-20T15:48:13.046Z,13.17
2019-03-20T15:50:42.368Z,13.19
2019-03-20T15:53:11.697Z,13.21
2019-03-20T15:55:42.164Z,13.10
2019-03-20T15:58:11.513Z,13.02
2019-03-20T16:00:40.820Z,13.05
2019-03-20T16:03:22.021Z,13.12
2019-03-20T16:05:51.344Z,13.16
2019-03-20T16:08:21.415Z,13.17
2019-03-20T16:10:50.741Z,13.20
2019-03-20T16:13:20.077Z,13.16
2019-03-20T16:15:49.450Z,13.06
2019-03-20T16:18:18.809Z,13.03
2019-03-20T16:20:48.137Z,13.14
2019-03-20T16:23:17.473Z,13.13
2019-03-20T16:25:47.090Z,13.15
2019-03-20T16:28:16.430Z,13.12
2019-03-20T16:30:46.003Z,13.15
2019-03-20T16:33:15.340Z,13.03
2019-03-20T16:35:44.661Z,13.11
2019-03-20T16:38:14.309Z,13.10
2019-03-20T16:40:43.636Z,12.99
2019-03-20T16:43:12.973Z,12.96
2019-03-20T16:45:42.309Z,12.96
2019-03-20T16:48:11.637Z,12.97
2019-03-20T16:50:41.223Z,13.08
2019-03-20T16:53:10.834Z,13.03
2019-03-20T16:55:40.156Z,13.00
2019-03-20T16:58:09.725Z,12.99
2019-03-20T17:00:39.049Z,12.84
2019-03-20T17:03:08.401Z,12.86
2019-03-20T17:05:37.726Z,12.86
2019-03-20T17:08:07.051Z,12.79
2019-03-20T17:10:39.463Z,12.79
2019-03-20T17:13:08.928Z,12.79
2019-03-20T17:15:39.781Z,12.79
2019-03-20T17:18:09.180Z,12.72
2019-03-20T17:20:38.645Z,12.66
2019-03-20T17:23:08.241Z,12.61
2019-03-20T17:25:37.652Z,12.55
2019-03-20T17:28:07.356Z,12.45
2019-03-20T17:30:38.551Z,12.41
2019-03-20T17:33:08.159Z,12.29
2019-03-20T17:35:37.559Z,12.20
2019-03-20T17:38:06.952Z,12.15
2019-03-20T17:40:36.344Z,12.10
2019-03-20T17:43:05.810Z,11.99
2019-03-20T17:45:35.779Z,11.90
2019-03-20T17:48:05.475Z,11.79
2019-03-20T17:50:35.374Z,11.69
2019-03-20T17:53:05.538Z,11.58
2019-03-20T17:55:35.145Z,11.46
2019-03-20T17:58:05.404Z,11.33
2019-03-20T18:00:39.101Z,11.21
2019-03-20T18:03:07.848Z,11.10
2019-03-20T18:05:37.113Z,10.97
2019-03-20T18:08:07.775Z,10.87
2019-03-20T18:10:37.103Z,10.74
2019-03-20T18:13:07.575Z,10.65
2019-03-20T18:15:36.969Z,10.55
2019-03-20T18:18:07.542Z,10.44
2019-03-20T18:20:37.716Z,10.34
2019-03-20T18:23:07.889Z,10.25
2019-03-20T18:25:37.293Z,10.17
2019-03-20T18:28:06.857Z,10.07
2019-03-20T18:30:38.636Z,10.01
2019-03-20T18:33:07.960Z,9.92
2019-03-20T18:35:37.307Z,9.84
2019-03-20T18:38:07.473Z,9.77
2019-03-20T18:40:36.814Z,9.71
2019-03-20T18:43:06.281Z,9.64
2019-03-20T18:45:35.612Z,9.57
2019-03-20T18:48:05.384Z,9.49
2019-03-20T18:50:35.038Z,9.43
2019-03-20T18:53:04.358Z,9.35
2019-03-20T18:55:34.658Z,9.28
2019-03-20T18:58:04.131Z,9.22
2019-03-20T19:00:34.740Z,9.14
2019-03-20T19:03:18.107Z,9.08
2019-03-20T19:05:59.509Z,9.01
2019-03-20T19:08:28.883Z,8.94
2019-03-20T19:10:58.260Z,8.88
2019-03-20T19:13:27.607Z,8.83
2019-03-20T19:15:56.935Z,8.82
2019-03-20T19:18:26.266Z,8.77
2019-03-20T19:20:55.652Z,8.73
2019-03-20T19:23:25.994Z,8.72
2019-03-20T19:25:55.562Z,8.69
2019-03-20T19:28:24.914Z,8.69
2019-03-20T19:30:54.225Z,8.68
2019-03-20T19:33:23.558Z,8.68
2019-03-20T19:35:53.176Z,8.67
2019-03-20T19:38:22.610Z,8.67
2019-03-20T19:40:51.941Z,8.67
2019-03-20T19:43:22.768Z,8.66
2019-03-20T19:45:52.346Z,8.66
2019-03-20T19:48:21.675Z,8.66
2019-03-20T19:50:50.999Z,8.67
2019-03-20T19:53:20.334Z,8.65
2019-03-20T19:55:49.661Z,8.67
2019-03-20T19:58:19.242Z,8.67
2019-03-20T20:00:48.594Z,8.67
2019-03-20T20:03:17.901Z,8.69
2019-03-20T20:05:47.230Z,8.68
2019-03-20T20:08:16.809Z,8.67
2019-03-20T20:10:46.138Z,8.66
2019-03-20T20:13:15.467Z,8.65
2019-03-20T20:15:45.023Z,8.64
2019-03-20T20:18:14.373Z,8.63
2019-03-20T20:20:43.689Z,8.62
2019-03-20T20:23:13.284Z,8.64
2019-03-20T20:25:42.677Z,8.62
2019-03-20T20:28:12.022Z,8.60
2019-03-20T20:30:41.348Z,8.59
2019-03-20T20:33:11.002Z,8.57
2019-03-20T20:35:40.333Z,8.55
2019-03-20T20:38:09.663Z,8.53
2019-03-20T20:40:38.988Z,8.49
2019-03-20T20:43:08.326Z,8.43
2019-03-20T20:45:37.909Z,8.40
2019-03-20T20:48:07.254Z,8.39
2019-03-20T20:50:36.828Z,8.34
2019-03-20T20:53:06.428Z,8.30
2019-03-20T20:55:35.777Z,8.24
2019-03-20T20:58:05.340Z,8.20
2019-03-20T21:00:34.663Z,8.18
2019-03-20T21:03:04.068Z,8.11
2019-03-20T21:05:33.392Z,8.04
2019-03-20T21:08:02.716Z,7.99
2019-03-20T21:10:32.045Z,7.94
2019-03-20T21:13:01.375Z,7.88
2019-03-20T21:15:39.453Z,7.81
2019-03-20T21:18:36.003Z,7.76
2019-03-20T21:21:05.347Z,7.72
2019-03-20T21:23:40.761Z,7.67
2019-03-20T21:26:16.535Z,7.62
2019-03-20T21:29:11.817Z,7.57
2019-03-20T21:31:44.196Z,7.54
2019-03-20T21:34:25.706Z,7.47
2019-03-20T21:37:18.740Z,7.41
2019-03-20T21:39:49.090Z,7.34
2019-03-20T21:42:33.848Z,7.28
2019-03-20T21:45:11.918Z,7.24
2019-03-20T21:47:41.318Z,7.19
2019-03-20T21:50:22.315Z,7.15
2019-03-20T21:52:51.637Z,7.10
2019-03-20T21:55:24.293Z,7.04
2019-03-20T21:58:15.114Z,7.00
2019-03-20T22:01:07.298Z,6.96
2019-03-20T22:03:36.625Z,6.88
2019-03-20T22:06:09.018Z,6.83
2019-03-20T22:08:38.347Z,6.80
2019-03-20T22:11:30.492Z,6.76
2019-03-20T22:14:14.277Z,6.74
2019-03-20T22:17:02.920Z,6.71
2019-03-20T22:19:50.261Z,6.66
2019-03-20T22:22:39.540Z,6.62
2019-03-20T22:25:27.041Z,6.59
2019-03-20T22:28:25.939Z,6.57
2019-03-20T22:30:56.337Z,6.52
2019-03-20T22:34:01.838Z,6.47
2019-03-20T22:36:31.958Z,6.46
2019-03-20T22:39:11.512Z,6.42
2019-03-20T22:41:52.704Z,6.38
2019-03-20T22:44:22.223Z,6.33
2019-03-20T22:47:17.437Z,6.32
2019-03-20T22:50:01.531Z,6.30
2019-03-20T22:52:54.417Z,6.26
2019-03-20T22:55:38.335Z,6.22
2019-03-20T22:58:39.250Z,6.15
2019-03-20T23:01:08.649Z,6.13
2019-03-20T23:03:49.888Z,6.08
2019-03-20T23:06:19.217Z,6.07
2019-03-20T23:08:48.549Z,6.04
2019-03-20T23:11:17.881Z,6.02
2019-03-20T23:13:47.601Z,6.01
2019-03-20T23:16:19.669Z,5.97
2019-03-20T23:18:48.998Z,5.96
2019-03-20T23:21:18.375Z,5.93
2019-03-20T23:23:47.756Z,5.87
2019-03-20T23:26:17.101Z,5.87
2019-03-20T23:28:46.428Z,5.84
2019-03-20T23:31:16.825Z,5.80
2019-03-20T23:33:46.157Z,5.81
2019-03-20T23:36:16.301Z,5.82
2019-03-20T23:38:45.926Z,5.82
2019-03-20T23:41:15.534Z,5.82
2019-03-20T23:43:52.948Z,5.78
2019-03-20T23:46:15.965Z,5.76
2019-03-20T23:48:51.034Z,5.74
2019-03-20T23:51:26.031Z,5.71
2019-03-20T23:53:56.241Z,5.69
2019-03-20T23:56:27.518Z,5.66
2019-03-20T23:58:57.127Z,5.64
